Time;durP1;ratioP1;P1;durP2;ratioP2;P2;SDS_P1;SDS_P2;PMS_P1;PMS_P2;Temp;Humidity;BMP_temperature;BMP_pressure;BME280_temperature;BME280_humidity;BME280_pressure;Samples;Min_cycle;Max_cycle;Signal;HPM_P1;HPM_P2
2023/11/23 00:01:38;;;;;;;;;;;;;;;-144.99;100.00;52668.22;5016243;28;19980;-72
2023/11/23 00:04:05;;;;;;;;;;;;;;;-144.99;100.00;52647.84;5018832;28;19933;-70
2023/11/23 00:06:33;;;;;;;;;;;;;;;-144.99;100.00;52603.00;5012158;28;19965;-71
2023/11/23 00:08:59;;;;;;;;;;;;;;;-144.99;100.00;52631.53;5014505;28;20510;-71
2023/11/23 00:11:25;;;;;;;;;;;;;;;-144.99;100.00;52643.78;5010923;28;20340;-71
2023/11/23 00:13:52;;;;;;;;;;;;;;;-144.99;100.00;52594.84;5016209;28;19925;-71
2023/11/23 00:16:18;;;;;;;;;;;;;;;-144.99;100.00;52596.88;5014729;28;19973;-71
2023/11/23 00:18:45;;;;;;;;;;;;;;;-144.99;100.00;52631.53;5008615;28;20343;-70
2023/11/23 00:21:11;;;;;;;;;;;;;;;-144.99;100.00;52643.78;5017210;28;19930;-71
2023/11/23 00:23:41;;;;;;;;;;;;;;;-144.99;100.00;52590.78;5016792;28;19972;-71
2023/11/23 00:26:08;;;;;;;;;;;;;;;-144.99;100.00;52609.13;5019265;28;19925;-69
2023/11/23 00:28:34;;;;;;;;;;;;;;;-144.99;100.00;52611.16;5015076;28;20342;-68
2023/11/23 00:31:01;;;;;;;;;;;;;;;-144.99;100.00;52635.63;5015052;28;19929;-69
2023/11/23 00:33:28;;;;;;;;;;;;;;;-144.99;100.00;52623.38;5017753;28;19929;-68
2023/11/23 00:35:55;;;;;;;;;;;;;;;-144.99;100.00;52627.47;5013362;28;19972;-69
2023/11/23 00:38:21;;;;;;;;;;;;;;;-144.99;100.00;52603.00;5015704;28;19926;-69
2023/11/23 00:40:49;;;;;;;;;;;;;;;-144.99;100.00;52619.31;5014243;28;19980;-68
2023/11/23 00:43:15;;;;;;;;;;;;;;;-144.99;100.00;52635.63;5017598;28;20020;-68
2023/11/23 00:45:42;;;;;;;;;;;;;;;-144.99;100.00;52619.31;5010579;28;20465;-69
2023/11/23 00:48:08;;;;;;;;;;;;;;;-144.99;100.00;52651.94;5007366;28;19937;-67
2023/11/23 00:50:35;;;;;;;;;;;;;;;-144.99;100.00;52619.31;5014714;28;19965;-68
2023/11/23 00:53:01;;;;;;;;;;;;;;;-144.99;100.00;52639.69;5018951;28;19937;-66
2023/11/23 00:55:28;;;;;;;;;;;;;;;-144.99;100.00;52613.19;5013352;28;19926;-66
2023/11/23 00:57:56;;;;;;;;;;;;;;;-144.99;100.00;52627.47;5014346;28;19928;-66
2023/11/23 01:00:22;;;;;;;;;;;;;;;-144.99;100.00;52598.94;5017477;28;19925;-66
2023/11/23 01:02:50;;;;;;;;;;;;;;;-144.99;100.00;52570.38;5012828;28;19925;-66
2023/11/23 01:05:18;;;;;;;;;;;;;;;-144.99;100.00;52590.78;5017944;28;19995;-66
2023/11/23 01:07:45;;;;;;;;;;;;;;;-144.99;100.00;52615.25;5013990;28;19929;-65
2023/11/23 01:10:11;;;;;;;;;;;;;;;-144.99;100.00;52647.84;5011498;28;20028;-66
2023/11/23 01:12:38;;;;;;;;;;;;;;;-144.99;100.00;52594.84;5019911;28;19925;-66
2023/11/23 01:15:06;;;;;;;;;;;;;;;-144.99;100.00;52598.94;5007732;28;19979;-68
2023/11/23 01:17:34;;;;;;;;;;;;;;;-144.99;100.00;52627.47;5020681;28;19976;-66
2023/11/23 01:20:00;;;;;;;;;;;;;;;-144.99;100.00;52611.16;5015206;28;20150;-65
2023/11/23 01:22:27;;;;;;;;;;;;;;;-144.99;100.00;52631.53;5016146;28;20443;-65
2023/11/23 01:24:54;;;;;;;;;;;;;;;-144.99;100.00;52566.31;5016839;28;19930;-66
2023/11/23 01:27:20;;;;;;;;;;;;;;;-144.99;100.00;52629.50;5018616;28;20024;-65
2023/11/23 01:29:47;;;;;;;;;;;;;;;-144.99;100.00;52598.94;5011907;28;20396;-66
2023/11/23 01:32:15;;;;;;;;;;;;;;;-144.99;100.00;52623.38;5013595;28;19969;-66
2023/11/23 01:34:41;;;;;;;;;;;;;;;-144.99;100.00;52592.81;5013176;28;19933;-66
2023/11/23 01:37:08;;;;;;;;;;;;;;;-144.99;100.00;52590.78;5004799;28;20025;-71
2023/11/23 01:39:34;;;;;;;;;;;;;;;-144.99;100.00;52607.09;5005743;28;20012;-71
2023/11/23 01:42:01;;;;;;;;;;;;;;;-144.99;100.00;52598.94;4995577;28;19937;-72
2023/11/23 01:44:27;;;;;;;;;;;;;;;-144.99;100.00;52574.47;5001919;28;19925;-71
2023/11/23 01:46:53;;;;;;;;;;;;;;;-144.99;100.00;52635.63;5012908;28;19972;-71
2023/11/23 01:49:22;;;;;;;;;;;;;;;-144.99;100.00;52594.84;5000746;28;19976;-71
2023/11/23 01:51:48;;;;;;;;;;;;;;;-144.99;100.00;52582.63;5016006;28;19971;-65
2023/11/23 01:54:15;;;;;;;;;;;;;;;-144.99;100.00;52607.09;5013214;28;19929;-66
2023/11/23 01:56:43;;;;;;;;;;;;;;;-144.99;100.00;52558.16;5020412;28;20012;-64
2023/11/23 01:59:09;;;;;;;;;;;;;;;-144.99;100.00;52623.38;5015083;28;19968;-64
2023/11/23 02:01:36;;;;;;;;;;;;;;;-144.99;100.00;52627.47;5013865;28;19984;-65
2023/11/23 02:04:03;;;;;;;;;;;;;;;-144.99;100.00;52613.19;5012245;28;19960;-67
2023/11/23 02:06:31;;;;;;;;;;;;;;;-144.99;100.00;52574.47;5015857;28;20462;-67
2023/11/23 02:08:57;;;;;;;;;;;;;;;-144.99;100.00;52609.13;5014779;28;19973;-67
2023/11/23 02:11:24;;;;;;;;;;;;;;;-144.99;100.00;52586.69;5012891;28;19968;-67
2023/11/23 02:13:51;;;;;;;;;;;;;;;-144.99;100.00;52586.69;5016422;28;19957;-67
2023/11/23 02:16:17;;;;;;;;;;;;;;;-144.99;100.00;52651.94;5014463;28;19985;-67
2023/11/23 02:18:44;;;;;;;;;;;;;;;-144.99;100.00;52574.47;5012315;28;20020;-66
2023/11/23 02:21:10;;;;;;;;;;;;;;;-144.99;100.00;52590.78;5015847;28;19926;-67
2023/11/23 02:23:38;;;;;;;;;;;;;;;-144.99;100.00;52592.81;5006242;28;20050;-66
2023/11/23 02:26:06;;;;;;;;;;;;;;;-144.99;100.00;52566.31;5008922;28;19972;-67
2023/11/23 02:28:33;;;;;;;;;;;;;;;-144.99;100.00;52611.16;5015104;28;20011;-67
2023/11/23 02:31:00;;;;;;;;;;;;;;;-144.99;100.00;52550.00;5005498;28;20402;-71
2023/11/23 02:33:26;;;;;;;;;;;;;;;-144.99;100.00;52574.47;5005357;28;19929;-70
2023/11/23 02:35:53;;;;;;;;;;;;;;;-144.99;100.00;52613.19;5006937;28;20027;-69
2023/11/23 02:38:19;;;;;;;;;;;;;;;-144.99;100.00;52550.00;5003937;28;19972;-69
2023/11/23 02:40:46;;;;;;;;;;;;;;;-144.99;100.00;52562.25;5012271;28;19973;-68
2023/11/23 02:43:13;;;;;;;;;;;;;;;-144.99;100.00;52578.53;5003631;28;19981;-69
2023/11/23 02:45:41;;;;;;;;;;;;;;;-144.99;100.00;52647.84;5007800;28;19976;-69
2023/11/23 02:48:08;;;;;;;;;;;;;;;-144.99;100.00;52607.09;5010550;28;19926;-70
2023/11/23 02:50:35;;;;;;;;;;;;;;;-144.99;100.00;52586.69;5008793;28;20012;-66
2023/11/23 02:53:03;;;;;;;;;;;;;;;-144.99;100.00;52603.00;5017349;28;19991;-67
2023/11/23 02:55:29;;;;;;;;;;;;;;;-144.99;100.00;52566.31;5014130;28;20052;-66
2023/11/23 02:57:56;;;;;;;;;;;;;;;-144.99;100.00;52603.00;5009208;28;19933;-65
2023/11/23 03:00:24;;;;;;;;;;;;;;;-144.99;100.00;52582.63;5015126;28;20340;-65
2023/11/23 03:02:50;;;;;;;;;;;;;;;-144.99;100.00;52590.78;5014628;28;19929;-67
2023/11/23 03:05:17;;;;;;;;;;;;;;;-144.99;100.00;52570.38;5016045;28;19929;-67
2023/11/23 03:07:43;;;;;;;;;;;;;;;-144.99;100.00;52603.00;5012119;28;20007;-70
2023/11/23 03:10:10;;;;;;;;;;;;;;;-144.99;100.00;52586.69;5006332;28;19964;-69
2023/11/23 03:12:37;;;;;;;;;;;;;;;-144.99;100.00;52582.63;5019185;28;19972;-69
2023/11/23 03:15:03;;;;;;;;;;;;;;;-144.99;100.00;52566.31;5005803;28;19976;-69
2023/11/23 03:17:32;;;;;;;;;;;;;;;-144.99;100.00;52574.47;5012797;28;19930;-69
2023/11/23 03:19:58;;;;;;;;;;;;;;;-144.99;100.00;52570.38;5008392;28;20051;-70
2023/11/23 03:22:24;;;;;;;;;;;;;;;-144.99;100.00;52588.75;5008303;28;19973;-70
2023/11/23 03:24:51;;;;;;;;;;;;;;;-144.99;100.00;52600.97;5009410;28;19973;-70
2023/11/23 03:27:18;;;;;;;;;;;;;;;-144.99;100.00;52558.16;5011902;28;20303;-70
2023/11/23 03:29:44;;;;;;;;;;;;;;;-144.99;100.00;52541.84;5005552;28;19953;-70
2023/11/23 03:32:11;;;;;;;;;;;;;;;-144.99;100.00;52558.16;5007667;28;19969;-70
2023/11/23 03:34:39;;;;;;;;;;;;;;;-144.99;100.00;52592.81;5015243;28;19925;-70
2023/11/23 03:37:05;;;;;;;;;;;;;;;-144.99;100.00;52592.81;5013540;28;19930;-70
2023/11/23 03:39:32;;;;;;;;;;;;;;;-144.99;100.00;52578.53;5000032;28;19972;-70
2023/11/23 03:41:58;;;;;;;;;;;;;;;-144.99;100.00;52594.84;5014468;28;20012;-70
2023/11/23 03:44:25;;;;;;;;;;;;;;;-144.99;100.00;52566.31;5005856;28;20010;-68
2023/11/23 03:46:52;;;;;;;;;;;;;;;-144.99;100.00;52598.94;5013244;28;19953;-68
2023/11/23 03:49:19;;;;;;;;;;;;;;;-144.99;100.00;52570.38;5009489;28;19946;-67
2023/11/23 03:51:48;;;;;;;;;;;;;;;-144.99;100.00;52570.38;5008514;28;20153;-67
2023/11/23 03:54:14;;;;;;;;;;;;;;;-144.99;100.00;52550.00;5011225;28;19925;-66
2023/11/23 03:56:41;;;;;;;;;;;;;;;-144.99;100.00;52598.94;5018736;28;20366;-66
2023/11/23 03:59:08;;;;;;;;;;;;;;;-144.99;100.00;52562.25;5004590;28;20020;-62
2023/11/23 04:01:34;;;;;;;;;;;;;;;-144.99;100.00;52574.47;5012404;28;19933;-64
2023/11/23 04:04:02;;;;;;;;;;;;;;;-144.99;100.00;52554.09;5010878;28;19957;-62
2023/11/23 04:06:29;;;;;;;;;;;;;;;-144.99;100.00;52533.69;5008361;28;20460;-63
2023/11/23 04:08:57;;;;;;;;;;;;;;;-144.99;100.00;52578.53;5014065;28;19972;-64
2023/11/23 04:11:23;;;;;;;;;;;;;;;-144.99;100.00;52525.56;5004225;28;19929;-64
2023/11/23 04:13:50;;;;;;;;;;;;;;;-144.99;100.00;52570.38;5015271;28;19929;-65
2023/11/23 04:16:17;;;;;;;;;;;;;;;-144.99;100.00;52541.84;5012981;28;19968;-66
2023/11/23 04:18:44;;;;;;;;;;;;;;;-144.99;100.00;52566.31;5009956;28;19929;-64
2023/11/23 04:21:11;;;;;;;;;;;;;;;-144.99;100.00;52578.53;5002341;28;20194;-66
2023/11/23 04:23:37;;;;;;;;;;;;;;;-144.99;100.00;52568.34;5001418;28;20002;-65
2023/11/23 04:26:05;;;;;;;;;;;;;;;-144.99;100.00;52529.63;5015616;28;19926;-69
2023/11/23 04:28:32;;;;;;;;;;;;;;;-144.99;100.00;52580.59;5008308;28;20020;-72
2023/11/23 04:30:58;;;;;;;;;;;;;;;-144.99;100.00;52611.16;5008715;28;20363;-73
2023/11/23 04:33:25;;;;;;;;;;;;;;;-144.99;100.00;52554.09;5001655;28;20075;-74
2023/11/23 04:35:51;;;;;;;;;;;;;;;-144.99;100.00;52562.25;5010707;28;19968;-74
2023/11/23 04:38:18;;;;;;;;;;;;;;;-144.99;100.00;52598.94;5011076;28;19925;-74
2023/11/23 04:40:45;;;;;;;;;;;;;;;-144.99;100.00;52562.25;5006370;28;19967;-74
2023/11/23 04:43:12;;;;;;;;;;;;;;;-144.99;100.00;52541.84;5005956;28;19976;-73
2023/11/23 04:45:39;;;;;;;;;;;;;;;-144.99;100.00;52594.84;4998047;28;19936;-75
2023/11/23 04:48:06;;;;;;;;;;;;;;;-144.99;100.00;52560.19;5003947;28;19932;-78
2023/11/23 04:50:33;;;;;;;;;;;;;;;-144.99;100.00;52533.69;5011234;28;19966;-76
2023/11/23 04:52:59;;;;;;;;;;;;;;;-144.99;100.00;52523.50;5008677;28;20005;-76
2023/11/23 04:55:27;;;;;;;;;;;;;;;-144.99;100.00;52590.78;5000707;28;20123;-76
2023/11/23 04:57:54;;;;;;;;;;;;;;;-144.99;100.00;52529.63;5006109;28;20658;-77
2023/11/23 05:00:24;;;;;;;;;;;;;;;-144.99;100.00;52545.94;5015347;28;19969;-76
2023/11/23 05:02:51;;;;;;;;;;;;;;;-144.99;100.00;52537.78;5006360;28;20482;-77
2023/11/23 05:05:17;;;;;;;;;;;;;;;-144.99;100.00;52586.69;5011953;28;20012;-75
2023/11/23 05:07:44;;;;;;;;;;;;;;;-144.99;100.00;52570.38;5012680;28;20364;-75
2023/11/23 05:10:10;;;;;;;;;;;;;;;-144.99;100.00;52545.94;4996738;28;20007;-66
2023/11/23 05:12:37;;;;;;;;;;;;;;;-144.99;100.00;52578.53;5009866;28;20079;-67
2023/11/23 05:15:04;;;;;;;;;;;;;;;-144.99;100.00;52539.81;5009847;28;19929;-67
2023/11/23 05:17:33;;;;;;;;;;;;;;;-144.99;100.00;52547.97;5009004;28;19932;-66
2023/11/23 05:19:59;;;;;;;;;;;;;;;-144.99;100.00;52598.94;5001834;28;19964;-66
2023/11/23 05:22:26;;;;;;;;;;;;;;;-144.99;100.00;52578.53;5015926;28;20411;-67
2023/11/23 05:24:52;;;;;;;;;;;;;;;-144.99;100.00;52525.56;5013561;28;20446;-67
2023/11/23 05:27:20;;;;;;;;;;;;;;;-144.99;100.00;52556.13;5007299;28;19933;-66
2023/11/23 05:29:47;;;;;;;;;;;;;;;-144.99;100.00;52558.16;5000047;28;19926;-67
2023/11/23 05:32:14;;;;;;;;;;;;;;;-144.99;100.00;52554.09;5006082;28;20016;-66
2023/11/23 05:34:41;;;;;;;;;;;;;;;-144.99;100.00;52570.38;5013800;28;20388;-67
2023/11/23 05:37:08;;;;;;;;;;;;;;;-144.99;100.00;52554.09;5008026;28;20279;-65
2023/11/23 05:39:34;;;;;;;;;;;;;;;-144.99;100.00;52552.03;4997723;28;20372;-66
2023/11/23 05:42:01;;;;;;;;;;;;;;;-144.99;100.00;52550.00;5011664;28;19975;-67
2023/11/23 05:44:27;;;;;;;;;;;;;;;-144.99;100.00;52537.78;5010352;28;19987;-72
2023/11/23 05:46:54;;;;;;;;;;;;;;;-144.99;100.00;52541.84;5008507;28;19971;-71
2023/11/23 05:49:21;;;;;;;;;;;;;;;-144.99;100.00;52550.00;4988102;28;19929;-71
2023/11/23 05:51:49;;;;;;;;;;;;;;;-144.99;100.00;52554.09;5019037;28;19933;-71
2023/11/23 05:54:15;;;;;;;;;;;;;;;-144.99;100.00;52558.16;5015261;28;20455;-72
2023/11/23 05:56:43;;;;;;;;;;;;;;;-144.99;100.00;52533.69;5008571;28;19926;-72
2023/11/23 05:59:10;;;;;;;;;;;;;;;-144.99;100.00;52568.34;5016540;28;19932;-72
2023/11/23 06:01:36;;;;;;;;;;;;;;;-144.99;100.00;52541.84;5011507;28;19925;-72
2023/11/23 06:04:03;;;;;;;;;;;;;;;-144.99;100.00;52537.78;5001608;28;19952;-72
2023/11/23 06:06:30;;;;;;;;;;;;;;;-144.99;100.00;52519.44;5016824;28;19928;-71
2023/11/23 06:08:58;;;;;;;;;;;;;;;-144.99;100.00;52566.31;5011076;28;20000;-71
2023/11/23 06:11:24;;;;;;;;;;;;;;;-144.99;100.00;52566.31;5013697;28;20474;-72
2023/11/23 06:13:51;;;;;;;;;;;;;;;-144.99;100.00;52554.09;5007792;28;19972;-72
2023/11/23 06:16:17;;;;;;;;;;;;;;;-144.99;100.00;52545.94;5002942;28;19984;-72
2023/11/23 06:18:44;;;;;;;;;;;;;;;-144.99;100.00;52545.94;5009461;28;19963;-72
2023/11/23 06:21:11;;;;;;;;;;;;;;;-144.99;100.00;52554.09;4988665;28;20400;-72
2023/11/23 06:23:38;;;;;;;;;;;;;;;-144.99;100.00;52519.44;5009055;28;20021;-72
2023/11/23 06:26:06;;;;;;;;;;;;;;;-144.99;100.00;52586.69;5009024;28;20020;-72
2023/11/23 06:28:32;;;;;;;;;;;;;;;-144.99;100.00;52539.81;5009148;28;19999;-72
2023/11/23 06:30:58;;;;;;;;;;;;;;;-144.99;100.00;52539.81;5008712;28;19961;-72
2023/11/23 06:33:25;;;;;;;;;;;;;;;-144.99;100.00;52574.47;5009421;28;19976;-72
2023/11/23 06:35:51;;;;;;;;;;;;;;;-144.99;100.00;52521.47;5008307;28;20039;-72
2023/11/23 06:38:18;;;;;;;;;;;;;;;-144.99;100.00;52537.78;5005559;28;19926;-72
2023/11/23 06:40:46;;;;;;;;;;;;;;;-144.99;100.00;52566.31;5007133;28;20037;-72
2023/11/23 06:43:15;;;;;;;;;;;;;;;-144.99;100.00;52558.16;5002918;28;19933;-72
2023/11/23 06:45:41;;;;;;;;;;;;;;;-144.99;100.00;52537.78;5005173;28;19940;-72
2023/11/23 06:48:07;;;;;;;;;;;;;;;-144.99;100.00;52564.28;5010090;28;20335;-72
2023/11/23 06:50:34;;;;;;;;;;;;;;;-144.99;100.00;52556.13;5005532;28;19929;-72
2023/11/23 06:53:01;;;;;;;;;;;;;;;-144.99;100.00;52582.63;5009011;28;19948;-73
2023/11/23 06:55:27;;;;;;;;;;;;;;;-144.99;100.00;52558.16;4998547;28;19983;-72
2023/11/23 06:57:54;;;;;;;;;;;;;;;-144.99;100.00;52509.25;5006941;28;19925;-72
2023/11/23 07:00:23;;;;;;;;;;;;;;;-144.99;100.00;52550.00;5005444;28;20028;-72
2023/11/23 07:02:50;;;;;;;;;;;;;;;-144.99;100.00;52541.84;5008486;28;20244;-72
2023/11/23 07:05:17;;;;;;;;;;;;;;;-144.99;100.00;52529.63;5009548;28;19969;-71
2023/11/23 07:07:45;;;;;;;;;;;;;;;-144.99;100.00;52541.84;5007554;28;20390;-72
2023/11/23 07:10:12;;;;;;;;;;;;;;;-144.99;100.00;52525.56;5005216;28;19933;-72
2023/11/23 07:12:39;;;;;;;;;;;;;;;-144.99;100.00;52545.94;5009090;28;20372;-72
2023/11/23 07:15:06;;;;;;;;;;;;;;;-144.99;100.00;52554.09;5005316;28;19966;-72
2023/11/23 07:17:34;;;;;;;;;;;;;;;-144.99;100.00;52517.41;5004781;28;19953;-72
2023/11/23 07:20:01;;;;;;;;;;;;;;;-144.99;100.00;52560.19;5004441;28;20032;-72
2023/11/23 07:22:27;;;;;;;;;;;;;;;-144.99;100.00;52558.16;5008325;28;20416;-72
2023/11/23 07:24:53;;;;;;;;;;;;;;;-144.99;100.00;52562.25;5008752;28;20116;-73
2023/11/23 07:27:20;;;;;;;;;;;;;;;-144.99;100.00;52517.41;5007612;28;19961;-73
2023/11/23 07:29:47;;;;;;;;;;;;;;;-144.99;100.00;52539.81;5007594;28;20052;-71
2023/11/23 07:32:14;;;;;;;;;;;;;;;-144.99;100.00;52570.38;5005936;28;19930;-72
2023/11/23 07:34:42;;;;;;;;;;;;;;;-144.99;100.00;52552.03;5006559;28;20414;-72
2023/11/23 07:37:10;;;;;;;;;;;;;;;-144.99;100.00;52537.78;5004026;28;19926;-71
2023/11/23 07:39:37;;;;;;;;;;;;;;;-144.99;100.00;52545.94;5010742;28;19983;-73
2023/11/23 07:42:04;;;;;;;;;;;;;;;-144.99;100.00;52525.56;5030772;22;19925;-70
2023/11/23 07:44:31;;;;;;;;;;;;;;;-144.99;100.00;52545.94;5042582;28;20023;-71
2023/11/23 07:46:57;;;;;;;;;;;;;;;-144.99;100.00;52562.25;5018730;28;19926;-70
2023/11/23 07:49:25;;;;;;;;;;;;;;;-144.99;100.00;52554.09;5021525;28;19930;-70
2023/11/23 07:51:55;;;;;;;;;;;;;;;-144.99;100.00;52509.25;5017571;28;20393;-71
2023/11/23 07:54:21;;;;;;;;;;;;;;;-144.99;100.00;52582.63;5022461;28;19925;-71
2023/11/23 07:56:48;;;;;;;;;;;;;;;-144.99;100.00;52568.34;5018138;28;19995;-70
2023/11/23 07:59:14;;;;;;;;;;;;;;;-144.99;100.00;52537.78;5025007;28;20031;-70
2023/11/23 08:01:40;;;;;;;;;;;;;;;-144.99;100.00;52550.00;5028115;28;20127;-71
2023/11/23 08:04:07;;;;;;;;;;;;;;;-144.99;100.00;52521.47;5024285;28;19972;-71
2023/11/23 08:06:33;;;;;;;;;;;;;;;-144.99;100.00;52564.28;5028105;28;20013;-71
2023/11/23 08:09:01;;;;;;;;;;;;;;;-144.99;100.00;52554.09;5019270;28;20394;-71
2023/11/23 08:11:28;;;;;;;;;;;;;;;-144.99;100.00;52558.16;5031850;28;19960;-71
2023/11/23 08:13:55;;;;;;;;;;;;;;;-144.99;100.00;52541.84;5025567;28;19947;-71
2023/11/23 08:16:21;;;;;;;;;;;;;;;-144.99;100.00;52525.56;5005785;28;19925;-71
2023/11/23 08:18:48;;;;;;;;;;;;;;;-144.99;100.00;52580.59;5022860;28;19980;-71
2023/11/23 08:21:14;;;;;;;;;;;;;;;-144.99;100.00;52586.69;5016829;28;20024;-71
2023/11/23 08:23:41;;;;;;;;;;;;;;;-144.99;100.00;52558.16;5029306;28;19972;-71
2023/11/23 08:26:10;;;;;;;;;;;;;;;-144.99;100.00;52541.84;5020266;28;19931;-70
2023/11/23 08:28:37;;;;;;;;;;;;;;;-144.99;100.00;52541.84;5027086;28;20008;-70
2023/11/23 08:31:03;;;;;;;;;;;;;;;-144.99;100.00;52578.53;5024437;28;20011;-71
2023/11/23 08:33:30;;;;;;;;;;;;;;;-144.99;100.00;52558.16;5024195;28;20013;-70
2023/11/23 08:35:56;;;;;;;;;;;;;;;-144.99;100.00;52541.84;5018745;28;20021;-71
2023/11/23 08:38:23;;;;;;;;;;;;;;;-144.99;100.00;52562.25;5030200;28;20062;-71
2023/11/23 08:40:50;;;;;;;;;;;;;;;-144.99;100.00;52564.28;5029409;28;19963;-71
2023/11/23 08:43:18;;;;;;;;;;;;;;;-144.99;100.00;52574.47;5015807;28;20041;-71
2023/11/23 08:45:45;;;;;;;;;;;;;;;-144.99;100.00;52566.31;5026801;28;19925;-70
2023/11/23 08:48:11;;;;;;;;;;;;;;;-144.99;100.00;52598.94;5017704;28;20600;-72
2023/11/23 08:50:38;;;;;;;;;;;;;;;-144.99;100.00;52521.47;5022686;28;19941;-69
2023/11/23 08:53:05;;;;;;;;;;;;;;;-144.99;100.00;52560.19;5026429;28;20004;-70
2023/11/23 08:55:31;;;;;;;;;;;;;;;-144.99;100.00;52566.31;5027057;28;20402;-71
2023/11/23 08:57:58;;;;;;;;;;;;;;;-144.99;100.00;52554.09;5030271;28;19960;-70
2023/11/23 09:00:27;;;;;;;;;;;;;;;-144.99;100.00;52570.38;5021941;28;20241;-70
2023/11/23 09:02:54;;;;;;;;;;;;;;;-144.99;100.00;52572.44;5019108;28;19961;-70
2023/11/23 09:05:22;;;;;;;;;;;;;;;-144.99;100.00;52533.69;5024275;28;20522;-70
2023/11/23 09:07:49;;;;;;;;;;;;;;;-144.99;100.00;52517.41;5021528;28;20040;-70
2023/11/23 09:10:16;;;;;;;;;;;;;;;-144.99;100.00;52578.53;5024397;28;20405;-71
2023/11/23 09:12:42;;;;;;;;;;;;;;;-144.99;100.00;52517.41;5019994;28;19968;-70
2023/11/23 09:15:10;;;;;;;;;;;;;;;-144.99;100.00;52519.44;5026424;28;19940;-72
2023/11/23 09:17:38;;;;;;;;;;;;;;;-144.99;100.00;52517.41;5025408;28;19925;-71
2023/11/23 09:20:08;;;;;;;;;;;;;;;-144.99;100.00;52529.63;5022452;28;20024;-70
2023/11/23 09:22:35;;;;;;;;;;;;;;;-144.99;100.00;52529.63;5030172;28;20353;-71
2023/11/23 09:25:02;;;;;;;;;;;;;;;-144.99;100.00;52562.25;5006757;28;19941;-71
2023/11/23 09:27:29;;;;;;;;;;;;;;;-144.99;100.00;52554.09;5020000;28;19929;-71
2023/11/23 09:29:56;;;;;;;;;;;;;;;-144.99;100.00;52543.91;5027065;28;20156;-71
2023/11/23 09:32:22;;;;;;;;;;;;;;;-144.99;100.00;52564.28;5025596;28;19925;-71
2023/11/23 09:34:50;;;;;;;;;;;;;;;-144.99;100.00;52558.16;5030347;28;19968;-71
2023/11/23 09:37:17;;;;;;;;;;;;;;;-144.99;100.00;52554.09;5028123;28;20020;-71
2023/11/23 09:39:45;;;;;;;;;;;;;;;-144.99;100.00;52543.91;5028207;28;20476;-71
2023/11/23 09:42:15;;;;;;;;;;;;;;;-144.99;100.00;52566.31;5028282;28;20245;-71
2023/11/23 09:44:42;;;;;;;;;;;;;;;-144.99;100.00;52554.09;5029563;28;20361;-71
2023/11/23 09:47:12;;;;;;;;;;;;;;;-144.99;100.00;52562.25;5022628;28;19975;-71
2023/11/23 09:49:39;;;;;;;;;;;;;;;-144.99;100.00;52529.63;5025595;28;19951;-71
2023/11/23 09:52:07;;;;;;;;;;;;;;;-144.99;100.00;52578.53;5021491;28;19925;-71
2023/11/23 09:54:34;;;;;;;;;;;;;;;-144.99;100.00;52578.53;5019489;28;19926;-70
2023/11/23 09:57:00;;;;;;;;;;;;;;;-144.99;100.00;52550.00;5020983;28;19933;-70
2023/11/23 09:59:26;;;;;;;;;;;;;;;-144.99;100.00;52550.00;5023115;28;20026;-71
2023/11/23 10:01:54;;;;;;;;;;;;;;;-144.99;100.00;52529.63;5024064;28;19928;-71
2023/11/23 10:04:21;;;;;;;;;;;;;;;-144.99;100.00;52550.00;5019320;28;19929;-71
2023/11/23 10:06:47;;;;;;;;;;;;;;;-144.99;100.00;52529.63;5022016;28;19935;-71
2023/11/23 10:09:17;;;;;;;;;;;;;;;-144.99;100.00;52521.47;5021575;28;19979;-70
2023/11/23 10:11:43;;;;;;;;;;;;;;;-144.99;100.00;52570.38;5028738;28;20345;-69
2023/11/23 10:14:11;;;;;;;;;;;;;;;-144.99;100.00;52578.53;5024605;28;19935;-70
2023/11/23 10:16:37;;;;;;;;;;;;;;;-144.99;100.00;52562.25;5032641;28;19928;-69
2023/11/23 10:19:04;;;;;;;;;;;;;;;-144.99;100.00;52554.09;5031110;28;19968;-69
2023/11/23 10:21:31;;;;;;;;;;;;;;;-144.99;100.00;52566.31;5020371;28;19956;-69
2023/11/23 10:24:04;;;;;;;;;;;;;;;-144.99;100.00;52554.09;5024400;28;19987;-70
2023/11/23 10:26:32;;;;;;;;;;;;;;;-144.99;100.00;52590.78;5019581;28;19925;-70
2023/11/23 10:28:59;;;;;;;;;;;;;;;-144.99;100.00;52521.47;5017083;28;20525;-70
2023/11/23 10:31:26;;;;;;;;;;;;;;;-144.99;100.00;52547.97;5017819;28;19925;-70
2023/11/23 10:33:52;;;;;;;;;;;;;;;-144.99;100.00;52550.00;5026736;28;20015;-70
2023/11/23 10:36:20;;;;;;;;;;;;;;;-144.99;100.00;52566.31;5023063;28;20469;-69
2023/11/23 10:38:47;;;;;;;;;;;;;;;-144.99;100.00;52509.25;5020345;28;19935;-70
2023/11/23 10:41:14;;;;;;;;;;;;;;;-144.99;100.00;52533.69;5019900;28;20029;-70
2023/11/23 10:43:45;;;;;;;;;;;;;;;-144.99;100.00;52515.34;5014190;28;20094;-70
2023/11/23 10:46:12;;;;;;;;;;;;;;;-144.99;100.00;52578.53;5015225;28;19944;-69
2023/11/23 10:48:39;;;;;;;;;;;;;;;-144.99;100.00;52560.19;5020473;28;19972;-70
2023/11/23 10:51:06;;;;;;;;;;;;;;;-144.99;100.00;52562.25;5016978;28;20315;-71
2023/11/23 10:53:33;;;;;;;;;;;;;;;-144.99;100.00;52550.00;5024434;28;19925;-69
2023/11/23 10:56:10;;;;;;;;;;;;;;;-144.99;100.00;52550.00;5025843;28;19983;-69
2023/11/23 10:58:38;;;;;;;;;;;;;;;-144.99;100.00;52525.56;5016512;28;19931;-69
2023/11/23 11:01:08;;;;;;;;;;;;;;;-144.99;100.00;52541.84;5026124;28;20012;-69
2023/11/23 11:03:35;;;;;;;;;;;;;;;-144.99;100.00;52558.16;5017627;28;20016;-69
2023/11/23 11:06:08;;;;;;;;;;;;;;;-144.99;100.00;52521.47;5027816;28;19925;-69
2023/11/23 11:08:35;;;;;;;;;;;;;;;-144.99;100.00;52537.78;5026197;28;20283;-70
2023/11/23 11:11:09;;;;;;;;;;;;;;;-144.99;100.00;52527.59;5016930;28;19926;-70
2023/11/23 11:13:40;;;;;;;;;;;;;;;-144.99;100.00;52541.84;5017811;28;19929;-71
2023/11/23 11:16:09;;;;;;;;;;;;;;;-144.99;100.00;52533.69;5026525;28;19929;-70
2023/11/23 11:18:36;;;;;;;;;;;;;;;-144.99;100.00;52521.47;5021625;28;19983;-70
2023/11/23 11:21:09;;;;;;;;;;;;;;;-144.99;100.00;52519.44;5019433;28;20020;-69
2023/11/23 11:23:37;;;;;;;;;;;;;;;-144.99;100.00;52533.69;5015197;28;20378;-71
2023/11/23 11:26:07;;;;;;;;;;;;;;;-144.99;100.00;52541.84;5027824;28;20438;-70
2023/11/23 11:28:34;;;;;;;;;;;;;;;-144.99;100.00;52566.31;5024621;28;20310;-71
2023/11/23 11:31:03;;;;;;;;;;;;;;;-144.99;100.00;52513.31;5018930;28;20001;-71
2023/11/23 11:33:31;;;;;;;;;;;;;;;-144.99;100.00;52570.38;5021528;28;19972;-72
2023/11/23 11:35:59;;;;;;;;;;;;;;;-144.99;100.00;52554.09;5023816;28;20406;-70
2023/11/23 11:38:25;;;;;;;;;;;;;;;-144.99;100.00;52537.78;5011616;28;19960;-71
2023/11/23 11:40:53;;;;;;;;;;;;;;;-144.99;100.00;52541.84;5028745;28;19956;-71
2023/11/23 11:43:20;;;;;;;;;;;;;;;-144.99;100.00;52554.09;5018329;28;20015;-71
2023/11/23 11:45:48;;;;;;;;;;;;;;;-144.99;100.00;52545.94;5030969;28;19925;-71
2023/11/23 11:48:16;;;;;;;;;;;;;;;-144.99;100.00;52545.94;5026116;28;20465;-71
2023/11/23 11:50:44;;;;;;;;;;;;;;;-144.99;100.00;52547.97;5023025;28;19925;-71
2023/11/23 11:53:10;;;;;;;;;;;;;;;-144.99;100.00;52562.25;5019962;28;20383;-71
2023/11/23 11:55:37;;;;;;;;;;;;;;;-144.99;100.00;52554.09;5021886;28;19925;-70
2023/11/23 11:58:05;;;;;;;;;;;;;;;-144.99;100.00;52541.84;5001604;28;19968;-70
2023/11/23 12:00:34;;;;;;;;;;;;;;;-144.99;100.00;52541.84;5023879;28;19937;-69
2023/11/23 12:03:01;;;;;;;;;;;;;;;-144.99;100.00;52560.19;5025505;28;20020;-69
2023/11/23 12:05:28;;;;;;;;;;;;;;;-144.99;100.00;52582.63;5026050;28;19926;-69
2023/11/23 12:07:56;;;;;;;;;;;;;;;-144.99;100.00;52558.16;5029516;28;19925;-69
2023/11/23 12:10:23;;;;;;;;;;;;;;;-144.99;100.00;52525.56;5017037;28;19975;-69
2023/11/23 12:12:50;;;;;;;;;;;;;;;-144.99;100.00;52554.09;5023004;28;20272;-70
2023/11/23 12:15:17;;;;;;;;;;;;;;;-144.99;100.00;52545.94;5028952;28;19926;-71
2023/11/23 12:17:50;;;;;;;;;;;;;;;-144.99;100.00;52550.00;5029897;28;20058;-70